sensor_id;sensor_type;location;lat;lon;timestamp;P1;durP1;ratioP1;P2;durP2;ratioP2
25639;SDS011;13497;48.322;16.204;2024-01-25T00:01:44;14.75;;;8.25;;
25639;SDS011;13497;48.322;16.204;2024-01-25T00:04:10;19.80;;;14.98;;
25639;SDS011;13497;48.322;16.204;2024-01-25T00:06:36;25.88;;;15.77;;
25639;SDS011;13497;48.322;16.204;2024-01-25T00:09:01;18.10;;;11.63;;
25639;SDS011;13497;48.322;16.204;2024-01-25T00:11:29;18.70;;;6.07;;
25639;SDS011;13497;48.322;16.204;2024-01-25T00:13:56;21.75;;;13.40;;
25639;SDS011;13497;48.322;16.204;2024-01-25T00:16:22;14.90;;;10.65;;
25639;SDS011;13497;48.322;16.204;2024-01-25T00:18:48;15.30;;;9.68;;
25639;SDS011;13497;48.322;16.204;2024-01-25T00:21:14;15.60;;;10.32;;
25639;SDS011;13497;48.322;16.204;2024-01-25T00:23:39;11.68;;;6.97;;
25639;SDS011;13497;48.322;16.204;2024-01-25T00:26:05;15.40;;;9.93;;
25639;SDS011;13497;48.322;16.204;2024-01-25T00:28:31;20.35;;;9.48;;
25639;SDS011;13497;48.322;16.204;2024-01-25T00:30:58;14.77;;;9.38;;
25639;SDS011;13497;48.322;16.204;2024-01-25T00:33:24;16.75;;;11.18;;
25639;SDS011;13497;48.322;16.204;2024-01-25T00:35:49;15.90;;;9.13;;
25639;SDS011;13497;48.322;16.204;2024-01-25T00:38:15;20.50;;;11.32;;
25639;SDS011;13497;48.322;16.204;2024-01-25T00:40:41;16.58;;;12.07;;
25639;SDS011;13497;48.322;16.204;2024-01-25T00:43:07;15.15;;;4.38;;
25639;SDS011;13497;48.322;16.204;2024-01-25T00:45:33;16.73;;;6.82;;
25639;SDS011;13497;48.322;16.204;2024-01-25T00:47:59;17.38;;;8.57;;
25639;SDS011;13497;48.322;16.204;2024-01-25T00:50:25;13.48;;;7.95;;
25639;SDS011;13497;48.322;16.204;2024-01-25T00:52:51;11.55;;;7.75;;
25639;SDS011;13497;48.322;16.204;2024-01-25T00:55:17;14.93;;;6.53;;
25639;SDS011;13497;48.322;16.204;2024-01-25T00:57:44;11.35;;;8.85;;
25639;SDS011;13497;48.322;16.204;2024-01-25T01:00:10;12.95;;;8.32;;
25639;SDS011;13497;48.322;16.204;2024-01-25T01:02:40;12.05;;;10.82;;
25639;SDS011;13497;48.322;16.204;2024-01-25T01:05:08;11.65;;;10.15;;
25639;SDS011;13497;48.322;16.204;2024-01-25T01:07:35;16.23;;;8.50;;
25639;SDS011;13497;48.322;16.204;2024-01-25T01:10:01;13.25;;;6.90;;
25639;SDS011;13497;48.322;16.204;2024-01-25T01:12:27;9.50;;;7.45;;
25639;SDS011;13497;48.322;16.204;2024-01-25T01:14:52;12.10;;;3.80;;
25639;SDS011;13497;48.322;16.204;2024-01-25T01:17:18;13.38;;;8.43;;
25639;SDS011;13497;48.322;16.204;2024-01-25T01:19:44;13.10;;;7.88;;
25639;SDS011;13497;48.322;16.204;2024-01-25T01:22:09;19.15;;;2.53;;
25639;SDS011;13497;48.322;16.204;2024-01-25T01:24:35;11.88;;;6.88;;
25639;SDS011;13497;48.322;16.204;2024-01-25T01:27:01;18.05;;;10.02;;
25639;SDS011;13497;48.322;16.204;2024-01-25T01:29:27;12.07;;;10.93;;
25639;SDS011;13497;48.322;16.204;2024-01-25T01:31:54;11.52;;;7.78;;
25639;SDS011;13497;48.322;16.204;2024-01-25T01:34:20;18.38;;;8.43;;
25639;SDS011;13497;48.322;16.204;2024-01-25T01:36:45;16.63;;;12.23;;
25639;SDS011;13497;48.322;16.204;2024-01-25T01:39:11;13.32;;;7.85;;
25639;SDS011;13497;48.322;16.204;2024-01-25T01:41:37;13.68;;;7.97;;
25639;SDS011;13497;48.322;16.204;2024-01-25T01:44:02;11.98;;;8.93;;
25639;SDS011;13497;48.322;16.204;2024-01-25T01:46:35;10.25;;;3.50;;
25639;SDS011;13497;48.322;16.204;2024-01-25T01:49:12;16.38;;;8.35;;
25639;SDS011;13497;48.322;16.204;2024-01-25T01:51:39;16.67;;;8.57;;
25639;SDS011;13497;48.322;16.204;2024-01-25T01:54:07;12.23;;;7.72;;
25639;SDS011;13497;48.322;16.204;2024-01-25T01:56:34;15.50;;;6.90;;
25639;SDS011;13497;48.322;16.204;2024-01-25T01:59:00;14.07;;;6.50;;
25639;SDS011;13497;48.322;16.204;2024-01-25T02:03:53;16.80;;;8.13;;
25639;SDS011;13497;48.322;16.204;2024-01-25T02:06:19;12.45;;;8.95;;
25639;SDS011;13497;48.322;16.204;2024-01-25T02:08:45;12.60;;;2.60;;
25639;SDS011;13497;48.322;16.204;2024-01-25T02:11:12;18.30;;;9.85;;
25639;SDS011;13497;48.322;16.204;2024-01-25T02:13:38;12.13;;;10.95;;
25639;SDS011;13497;48.322;16.204;2024-01-25T02:16:04;13.65;;;7.80;;
25639;SDS011;13497;48.322;16.204;2024-01-25T02:18:32;12.93;;;7.95;;
25639;SDS011;13497;48.322;16.204;2024-01-25T02:20:58;15.23;;;10.15;;
25639;SDS011;13497;48.322;16.204;2024-01-25T02:23:23;12.02;;;8.73;;
25639;SDS011;13497;48.322;16.204;2024-01-25T02:25:49;17.08;;;7.32;;
25639;SDS011;13497;48.322;16.204;2024-01-25T02:28:15;18.52;;;13.05;;
25639;SDS011;13497;48.322;16.204;2024-01-25T02:30:41;8.32;;;7.22;;
25639;SDS011;13497;48.322;16.204;2024-01-25T02:33:06;13.50;;;7.40;;
25639;SDS011;13497;48.322;16.204;2024-01-25T02:35:32;11.35;;;2.97;;
25639;SDS011;13497;48.322;16.204;2024-01-25T02:37:58;14.18;;;8.60;;
25639;SDS011;13497;48.322;16.204;2024-01-25T02:40:23;16.13;;;14.52;;
25639;SDS011;13497;48.322;16.204;2024-01-25T02:42:49;14.88;;;8.25;;
25639;SDS011;13497;48.322;16.204;2024-01-25T02:45:14;14.82;;;8.35;;
25639;SDS011;13497;48.322;16.204;2024-01-25T02:47:40;11.98;;;8.13;;
25639;SDS011;13497;48.322;16.204;2024-01-25T02:50:06;10.48;;;7.20;;
25639;SDS011;13497;48.322;16.204;2024-01-25T02:52:32;12.50;;;8.27;;
25639;SDS011;13497;48.322;16.204;2024-01-25T02:54:57;17.00;;;8.98;;
25639;SDS011;13497;48.322;16.204;2024-01-25T02:57:23;18.52;;;6.47;;
25639;SDS011;13497;48.322;16.204;2024-01-25T02:59:50;11.55;;;7.05;;
25639;SDS011;13497;48.322;16.204;2024-01-25T03:02:15;17.77;;;9.35;;
25639;SDS011;13497;48.322;16.204;2024-01-25T03:04:43;12.90;;;8.63;;
25639;SDS011;13497;48.322;16.204;2024-01-25T03:07:09;13.23;;;7.55;;
25639;SDS011;13497;48.322;16.204;2024-01-25T03:09:34;9.18;;;7.82;;
25639;SDS011;13497;48.322;16.204;2024-01-25T03:12:00;17.67;;;6.00;;
25639;SDS011;13497;48.322;16.204;2024-01-25T03:14:26;13.82;;;6.10;;
25639;SDS011;13497;48.322;16.204;2024-01-25T03:16:52;8.70;;;4.10;;
25639;SDS011;13497;48.322;16.204;2024-01-25T03:19:18;12.82;;;8.88;;
25639;SDS011;13497;48.322;16.204;2024-01-25T03:21:43;15.43;;;7.65;;
25639;SDS011;13497;48.322;16.204;2024-01-25T03:24:09;14.82;;;8.82;;
25639;SDS011;13497;48.322;16.204;2024-01-25T03:26:34;10.20;;;7.30;;
25639;SDS011;13497;48.322;16.204;2024-01-25T03:29:00;13.75;;;10.07;;
25639;SDS011;13497;48.322;16.204;2024-01-25T03:31:26;16.92;;;9.88;;
25639;SDS011;13497;48.322;16.204;2024-01-25T03:33:51;10.52;;;7.70;;
25639;SDS011;13497;48.322;16.204;2024-01-25T03:36:17;12.73;;;9.43;;
25639;SDS011;13497;48.322;16.204;2024-01-25T03:38:43;18.15;;;8.10;;
25639;SDS011;13497;48.322;16.204;2024-01-25T03:41:08;13.10;;;9.95;;
25639;SDS011;13497;48.322;16.204;2024-01-25T03:43:34;14.63;;;7.32;;
25639;SDS011;13497;48.322;16.204;2024-01-25T03:46:00;17.08;;;6.78;;
25639;SDS011;13497;48.322;16.204;2024-01-25T03:48:26;17.58;;;8.55;;
25639;SDS011;13497;48.322;16.204;2024-01-25T03:50:52;14.73;;;7.30;;
25639;SDS011;13497;48.322;16.204;2024-01-25T03:53:21;12.25;;;9.00;;
25639;SDS011;13497;48.322;16.204;2024-01-25T03:55:47;7.93;;;5.32;;
25639;SDS011;13497;48.322;16.204;2024-01-25T03:58:14;10.15;;;6.32;;
25639;SDS011;13497;48.322;16.204;2024-01-25T04:00:40;11.88;;;10.73;;
25639;SDS011;13497;48.322;16.204;2024-01-25T04:03:06;20.73;;;8.98;;
25639;SDS011;13497;48.322;16.204;2024-01-25T04:05:31;10.90;;;6.90;;
25639;SDS011;13497;48.322;16.204;2024-01-25T04:07:57;14.70;;;8.00;;
25639;SDS011;13497;48.322;16.204;2024-01-25T04:10:23;13.20;;;8.30;;
25639;SDS011;13497;48.322;16.204;2024-01-25T04:12:48;12.82;;;7.40;;
25639;SDS011;13497;48.322;16.204;2024-01-25T04:15:14;11.80;;;7.38;;
25639;SDS011;13497;48.322;16.204;2024-01-25T04:17:40;11.27;;;8.40;;
25639;SDS011;13497;48.322;16.204;2024-01-25T04:20:05;18.10;;;7.70;;
25639;SDS011;13497;48.322;16.204;2024-01-25T04:22:32;11.98;;;8.98;;
25639;SDS011;13497;48.322;16.204;2024-01-25T04:24:57;14.80;;;7.55;;
25639;SDS011;13497;48.322;16.204;2024-01-25T04:27:23;19.15;;;8.13;;
25639;SDS011;13497;48.322;16.204;2024-01-25T04:29:48;14.02;;;7.30;;
25639;SDS011;13497;48.322;16.204;2024-01-25T04:32:14;15.30;;;11.40;;
25639;SDS011;13497;48.322;16.204;2024-01-25T04:34:40;12.52;;;8.25;;
25639;SDS011;13497;48.322;16.204;2024-01-25T04:37:05;10.32;;;8.43;;
25639;SDS011;13497;48.322;16.204;2024-01-25T04:39:31;9.70;;;6.53;;
25639;SDS011;13497;48.322;16.204;2024-01-25T04:41:57;12.43;;;7.43;;
25639;SDS011;13497;48.322;16.204;2024-01-25T04:44:22;16.55;;;11.70;;
25639;SDS011;13497;48.322;16.204;2024-01-25T04:46:48;12.75;;;8.75;;
25639;SDS011;13497;48.322;16.204;2024-01-25T04:49:14;19.10;;;10.68;;
25639;SDS011;13497;48.322;16.204;2024-01-25T04:51:40;17.10;;;7.13;;
25639;SDS011;13497;48.322;16.204;2024-01-25T04:54:05;14.73;;;8.80;;
25639;SDS011;13497;48.322;16.204;2024-01-25T04:56:32;13.23;;;7.68;;
25639;SDS011;13497;48.322;16.204;2024-01-25T04:58:58;16.17;;;5.32;;
25639;SDS011;13497;48.322;16.204;2024-01-25T05:01:23;12.80;;;9.45;;
25639;SDS011;13497;48.322;16.204;2024-01-25T05:03:49;9.75;;;4.32;;
25639;SDS011;13497;48.322;16.204;2024-01-25T05:06:15;16.67;;;8.85;;
25639;SDS011;13497;48.322;16.204;2024-01-25T05:08:41;14.30;;;7.55;;
25639;SDS011;13497;48.322;16.204;2024-01-25T05:11:08;14.57;;;9.05;;
25639;SDS011;13497;48.322;16.204;2024-01-25T05:13:34;14.70;;;11.15;;
25639;SDS011;13497;48.322;16.204;2024-01-25T05:16:00;16.63;;;3.47;;
25639;SDS011;13497;48.322;16.204;2024-01-25T05:18:26;12.63;;;6.32;;
25639;SDS011;13497;48.322;16.204;2024-01-25T05:20:51;12.23;;;8.38;;
25639;SDS011;13497;48.322;16.204;2024-01-25T05:23:17;10.27;;;2.75;;
25639;SDS011;13497;48.322;16.204;2024-01-25T05:25:42;13.02;;;9.98;;
25639;SDS011;13497;48.322;16.204;2024-01-25T05:28:08;15.18;;;7.72;;
25639;SDS011;13497;48.322;16.204;2024-01-25T05:30:34;19.23;;;10.15;;
25639;SDS011;13497;48.322;16.204;2024-01-25T05:32:59;11.80;;;3.35;;
25639;SDS011;13497;48.322;16.204;2024-01-25T05:35:25;13.10;;;8.13;;
25639;SDS011;13497;48.322;16.204;2024-01-25T05:37:51;10.23;;;6.65;;
25639;SDS011;13497;48.322;16.204;2024-01-25T05:40:17;16.77;;;13.57;;
25639;SDS011;13497;48.322;16.204;2024-01-25T05:42:43;14.13;;;8.30;;
25639;SDS011;13497;48.322;16.204;2024-01-25T05:45:08;13.32;;;6.63;;
25639;SDS011;13497;48.322;16.204;2024-01-25T05:47:35;14.13;;;8.45;;
25639;SDS011;13497;48.322;16.204;2024-01-25T05:50:00;14.82;;;7.97;;
25639;SDS011;13497;48.322;16.204;2024-01-25T05:52:27;20.02;;;10.10;;
25639;SDS011;13497;48.322;16.204;2024-01-25T05:54:54;17.40;;;9.63;;
25639;SDS011;13497;48.322;16.204;2024-01-25T05:57:19;16.33;;;4.30;;
25639;SDS011;13497;48.322;16.204;2024-01-25T05:59:46;17.15;;;8.02;;
25639;SDS011;13497;48.322;16.204;2024-01-25T06:02:12;20.70;;;7.40;;
25639;SDS011;13497;48.322;16.204;2024-01-25T06:04:38;17.40;;;4.40;;
25639;SDS011;13497;48.322;16.204;2024-01-25T06:07:04;13.60;;;9.02;;
25639;SDS011;13497;48.322;16.204;2024-01-25T06:09:30;14.48;;;6.72;;
25639;SDS011;13497;48.322;16.204;2024-01-25T06:11:56;17.95;;;9.75;;
25639;SDS011;13497;48.322;16.204;2024-01-25T06:14:23;16.77;;;10.23;;
25639;SDS011;13497;48.322;16.204;2024-01-25T06:16:49;15.05;;;7.63;;
25639;SDS011;13497;48.322;16.204;2024-01-25T06:19:17;18.90;;;8.85;;
25639;SDS011;13497;48.322;16.204;2024-01-25T06:21:43;14.07;;;7.63;;
25639;SDS011;13497;48.322;16.204;2024-01-25T06:24:09;17.73;;;9.07;;
25639;SDS011;13497;48.322;16.204;2024-01-25T06:26:35;17.05;;;2.78;;
25639;SDS011;13497;48.322;16.204;2024-01-25T06:29:00;13.55;;;6.97;;
25639;SDS011;13497;48.322;16.204;2024-01-25T06:31:26;19.02;;;9.68;;
25639;SDS011;13497;48.322;16.204;2024-01-25T06:33:51;12.75;;;9.60;;
25639;SDS011;13497;48.322;16.204;2024-01-25T06:36:21;15.00;;;4.65;;
25639;SDS011;13497;48.322;16.204;2024-01-25T06:38:47;20.55;;;11.77;;
25639;SDS011;13497;48.322;16.204;2024-01-25T06:41:13;30.83;;;13.25;;
25639;SDS011;13497;48.322;16.204;2024-01-25T06:43:40;17.83;;;13.18;;
25639;SDS011;13497;48.322;16.204;2024-01-25T06:46:06;33.30;;;28.60;;
25639;SDS011;13497;48.322;16.204;2024-01-25T06:48:31;20.65;;;15.25;;
25639;SDS011;13497;48.322;16.204;2024-01-25T06:50:58;88.63;;;59.38;;
25639;SDS011;13497;48.322;16.204;2024-01-25T06:53:23;191.65;;;102.45;;
25639;SDS011;13497;48.322;16.204;2024-01-25T06:55:49;260.60;;;127.88;;
25639;SDS011;13497;48.322;16.204;2024-01-25T06:58:14;274.25;;;139.23;;
25639;SDS011;13497;48.322;16.204;2024-01-25T07:00:40;95.38;;;57.78;;
25639;SDS011;13497;48.322;16.204;2024-01-25T07:03:07;325.25;;;218.35;;
25639;SDS011;13497;48.322;16.204;2024-01-25T07:05:33;114.22;;;73.90;;
25639;SDS011;13497;48.322;16.204;2024-01-25T07:08:00;115.45;;;74.60;;
25639;SDS011;13497;48.322;16.204;2024-01-25T07:10:30;41.50;;;31.02;;
25639;SDS011;13497;48.322;16.204;2024-01-25T07:12:56;30.85;;;22.65;;
25639;SDS011;13497;48.322;16.204;2024-01-25T07:15:23;47.05;;;37.92;;
25639;SDS011;13497;48.322;16.204;2024-01-25T07:17:48;66.65;;;40.38;;
25639;SDS011;13497;48.322;16.204;2024-01-25T07:20:14;68.47;;;43.55;;
25639;SDS011;13497;48.322;16.204;2024-01-25T07:22:41;40.00;;;28.83;;
25639;SDS011;13497;48.322;16.204;2024-01-25T07:25:06;31.85;;;13.35;;
25639;SDS011;13497;48.322;16.204;2024-01-25T07:27:32;20.10;;;12.15;;
25639;SDS011;13497;48.322;16.204;2024-01-25T07:29:58;19.33;;;14.57;;
25639;SDS011;13497;48.322;16.204;2024-01-25T07:32:24;26.00;;;14.75;;
25639;SDS011;13497;48.322;16.204;2024-01-25T07:34:50;18.77;;;4.60;;
25639;SDS011;13497;48.322;16.204;2024-01-25T07:37:16;26.63;;;18.95;;
25639;SDS011;13497;48.322;16.204;2024-01-25T07:39:43;22.30;;;14.38;;
25639;SDS011;13497;48.322;16.204;2024-01-25T07:42:09;20.83;;;8.45;;
25639;SDS011;13497;48.322;16.204;2024-01-25T07:44:35;20.65;;;13.02;;
25639;SDS011;13497;48.322;16.204;2024-01-25T07:47:01;15.88;;;9.38;;
25639;SDS011;13497;48.322;16.204;2024-01-25T07:49:27;24.23;;;14.20;;
25639;SDS011;13497;48.322;16.204;2024-01-25T07:51:53;16.83;;;9.52;;
25639;SDS011;13497;48.322;16.204;2024-01-25T07:54:21;15.75;;;12.20;;
25639;SDS011;13497;48.322;16.204;2024-01-25T07:56:47;14.18;;;10.80;;
25639;SDS011;13497;48.322;16.204;2024-01-25T07:59:13;14.63;;;10.60;;
25639;SDS011;13497;48.322;16.204;2024-01-25T08:01:39;11.45;;;7.50;;
25639;SDS011;13497;48.322;16.204;2024-01-25T08:04:04;18.85;;;7.85;;
25639;SDS011;13497;48.322;16.204;2024-01-25T08:06:30;19.63;;;8.35;;
25639;SDS011;13497;48.322;16.204;2024-01-25T08:08:56;18.48;;;10.07;;
25639;SDS011;13497;48.322;16.204;2024-01-25T08:11:22;12.70;;;8.60;;
25639;SDS011;13497;48.322;16.204;2024-01-25T08:13:48;20.02;;;10.05;;
25639;SDS011;13497;48.322;16.204;2024-01-25T08:16:14;9.75;;;8.15;;
25639;SDS011;13497;48.322;16.204;2024-01-25T08:18:44;15.68;;;9.88;;
25639;SDS011;13497;48.322;16.204;2024-01-25T08:21:11;13.70;;;1.88;;
25639;SDS011;13497;48.322;16.204;2024-01-25T08:23:37;18.27;;;9.88;;
25639;SDS011;13497;48.322;16.204;2024-01-25T08:26:04;23.27;;;12.52;;
25639;SDS011;13497;48.322;16.204;2024-01-25T08:28:30;13.57;;;9.20;;
25639;SDS011;13497;48.322;16.204;2024-01-25T08:30:56;11.55;;;8.95;;
25639;SDS011;13497;48.322;16.204;2024-01-25T08:33:22;19.17;;;6.07;;
25639;SDS011;13497;48.322;16.204;2024-01-25T08:35:50;18.20;;;11.50;;
25639;SDS011;13497;48.322;16.204;2024-01-25T08:38:16;12.73;;;11.43;;
25639;SDS011;13497;48.322;16.204;2024-01-25T08:40:42;11.75;;;8.88;;
25639;SDS011;13497;48.322;16.204;2024-01-25T08:43:07;17.10;;;8.45;;
25639;SDS011;13497;48.322;16.204;2024-01-25T08:45:33;13.68;;;7.85;;
25639;SDS011;13497;48.322;16.204;2024-01-25T08:47:59;18.02;;;11.13;;
25639;SDS011;13497;48.322;16.204;2024-01-25T08:50:25;16.17;;;8.70;;
25639;SDS011;13497;48.322;16.204;2024-01-25T08:52:51;15.10;;;7.47;;
25639;SDS011;13497;48.322;16.204;2024-01-25T08:55:16;14.82;;;10.90;;
25639;SDS011;13497;48.322;16.204;2024-01-25T08:57:42;16.42;;;9.82;;
25639;SDS011;13497;48.322;16.204;2024-01-25T09:00:08;12.70;;;9.82;;
25639;SDS011;13497;48.322;16.204;2024-01-25T09:02:37;16.17;;;7.70;;
25639;SDS011;13497;48.322;16.204;2024-01-25T09:05:04;11.85;;;10.25;;
25639;SDS011;13497;48.322;16.204;2024-01-25T09:07:30;13.52;;;9.38;;
25639;SDS011;13497;48.322;16.204;2024-01-25T09:09:56;17.52;;;9.38;;
25639;SDS011;13497;48.322;16.204;2024-01-25T09:12:22;11.57;;;8.45;;
25639;SDS011;13497;48.322;16.204;2024-01-25T09:14:48;18.88;;;7.32;;
25639;SDS011;13497;48.322;16.204;2024-01-25T09:17:13;13.02;;;4.00;;
25639;SDS011;13497;48.322;16.204;2024-01-25T09:19:40;15.52;;;9.38;;
25639;SDS011;13497;48.322;16.204;2024-01-25T09:22:06;15.20;;;9.05;;
25639;SDS011;13497;48.322;16.204;2024-01-25T09:24:32;19.75;;;10.32;;
25639;SDS011;13497;48.322;16.204;2024-01-25T09:27:01;13.20;;;9.73;;
25639;SDS011;13497;48.322;16.204;2024-01-25T09:29:27;13.93;;;8.63;;
25639;SDS011;13497;48.322;16.204;2024-01-25T09:31:53;11.98;;;8.32;;
25639;SDS011;13497;48.322;16.204;2024-01-25T09:34:19;14.38;;;7.78;;
25639;SDS011;13497;48.322;16.204;2024-01-25T09:36:45;17.95;;;9.57;;
25639;SDS011;13497;48.322;16.204;2024-01-25T09:39:11;14.85;;;8.55;;
25639;SDS011;13497;48.322;16.204;2024-01-25T09:41:37;18.63;;;9.88;;
25639;SDS011;13497;48.322;16.204;2024-01-25T09:44:07;10.73;;;9.43;;
25639;SDS011;13497;48.322;16.204;2024-01-25T09:49:00;24.02;;;9.93;;
25639;SDS011;13497;48.322;16.204;2024-01-25T09:51:30;17.73;;;11.35;;
25639;SDS011;13497;48.322;16.204;2024-01-25T09:54:06;20.45;;;3.47;;
25639;SDS011;13497;48.322;16.204;2024-01-25T09:56:33;14.68;;;8.77;;
25639;SDS011;13497;48.322;16.204;2024-01-25T09:58:59;11.98;;;9.93;;
25639;SDS011;13497;48.322;16.204;2024-01-25T10:01:26;11.68;;;9.48;;
25639;SDS011;13497;48.322;16.204;2024-01-25T10:03:52;11.27;;;7.95;;
25639;SDS011;13497;48.322;16.204;2024-01-25T10:06:21;14.90;;;8.02;;
25639;SDS011;13497;48.322;16.204;2024-01-25T10:08:47;8.57;;;2.78;;
25639;SDS011;13497;48.322;16.204;2024-01-25T10:11:14;13.23;;;7.20;;
25639;SDS011;13497;48.322;16.204;2024-01-25T10:13:43;14.50;;;3.78;;
25639;SDS011;13497;48.322;16.204;2024-01-25T10:16:13;16.08;;;7.28;;
25639;SDS011;13497;48.322;16.204;2024-01-25T10:18:40;13.27;;;9.20;;
25639;SDS011;13497;48.322;16.204;2024-01-25T10:21:10;17.83;;;8.40;;
25639;SDS011;13497;48.322;16.204;2024-01-25T10:23:37;15.98;;;9.18;;
25639;SDS011;13497;48.322;16.204;2024-01-25T10:26:03;16.45;;;8.27;;
25639;SDS011;13497;48.322;16.204;2024-01-25T10:28:29;13.52;;;7.30;;
25639;SDS011;13497;48.322;16.204;2024-01-25T10:30:56;17.35;;;9.70;;
25639;SDS011;13497;48.322;16.204;2024-01-25T10:33:25;25.67;;;9.27;;
25639;SDS011;13497;48.322;16.204;2024-01-25T10:35:55;16.38;;;10.15;;
25639;SDS011;13497;48.322;16.204;2024-01-25T10:38:26;14.68;;;9.95;;
25639;SDS011;13497;48.322;16.204;2024-01-25T10:40:57;16.00;;;8.48;;
25639;SDS011;13497;48.322;16.204;2024-01-25T10:43:28;19.95;;;10.23;;
25639;SDS011;13497;48.322;16.204;2024-01-25T10:45:55;20.60;;;10.32;;
25639;SDS011;13497;48.322;16.204;2024-01-25T10:48:24;16.73;;;9.57;;
25639;SDS011;13497;48.322;16.204;2024-01-25T10:50:52;19.98;;;9.68;;
25639;SDS011;13497;48.322;16.204;2024-01-25T10:53:22;19.10;;;11.05;;
25639;SDS011;13497;48.322;16.204;2024-01-25T10:55:49;23.95;;;11.55;;
25639;SDS011;13497;48.322;16.204;2024-01-25T10:58:15;20.23;;;13.45;;
25639;SDS011;13497;48.322;16.204;2024-01-25T11:00:41;21.38;;;9.68;;
25639;SDS011;13497;48.322;16.204;2024-01-25T11:03:14;18.60;;;7.43;;
25639;SDS011;13497;48.322;16.204;2024-01-25T11:05:39;18.27;;;14.10;;
25639;SDS011;13497;48.322;16.204;2024-01-25T11:08:16;22.63;;;8.45;;
25639;SDS011;13497;48.322;16.204;2024-01-25T11:10:48;14.32;;;10.25;;
25639;SDS011;13497;48.322;16.204;2024-01-25T11:13:28;21.20;;;11.68;;
25639;SDS011;13497;48.322;16.204;2024-01-25T11:15:54;14.88;;;11.73;;
25639;SDS011;13497;48.322;16.204;2024-01-25T11:18:24;13.43;;;9.57;;
25639;SDS011;13497;48.322;16.204;2024-01-25T11:20:53;11.40;;;9.00;;
25639;SDS011;13497;48.322;16.204;2024-01-25T11:23:31;17.80;;;11.02;;
25639;SDS011;13497;48.322;16.204;2024-01-25T11:25:57;13.63;;;7.40;;
25639;SDS011;13497;48.322;16.204;2024-01-25T11:28:23;18.75;;;8.55;;
25639;SDS011;13497;48.322;16.204;2024-01-25T11:30:48;14.30;;;8.35;;
25639;SDS011;13497;48.322;16.204;2024-01-25T11:33:14;16.42;;;3.58;;
25639;SDS011;13497;48.322;16.204;2024-01-25T11:35:40;12.60;;;9.48;;
25639;SDS011;13497;48.322;16.204;2024-01-25T11:38:08;28.25;;;12.60;;
25639;SDS011;13497;48.322;16.204;2024-01-25T11:40:34;97.10;;;59.67;;
25639;SDS011;13497;48.322;16.204;2024-01-25T11:43:01;87.82;;;47.08;;
25639;SDS011;13497;48.322;16.204;2024-01-25T11:47:53;14.80;;;12.40;;
25639;SDS011;13497;48.322;16.204;2024-01-25T11:50:19;25.25;;;10.07;;
25639;SDS011;13497;48.322;16.204;2024-01-25T11:52:46;12.75;;;6.30;;
25639;SDS011;13497;48.322;16.204;2024-01-25T11:55:15;13.20;;;8.73;;
25639;SDS011;13497;48.322;16.204;2024-01-25T11:57:41;17.25;;;12.25;;
25639;SDS011;13497;48.322;16.204;2024-01-25T12:00:08;17.02;;;8.85;;
25639;SDS011;13497;48.322;16.204;2024-01-25T12:02:35;20.45;;;10.93;;
25639;SDS011;13497;48.322;16.204;2024-01-25T12:05:02;14.05;;;10.48;;
25639;SDS011;13497;48.322;16.204;2024-01-25T12:07:32;17.70;;;8.68;;
25639;SDS011;13497;48.322;16.204;2024-01-25T12:10:05;20.65;;;11.68;;
25639;SDS011;13497;48.322;16.204;2024-01-25T12:12:32;18.10;;;10.57;;
25639;SDS011;13497;48.322;16.204;2024-01-25T12:15:04;14.65;;;9.40;;
25639;SDS011;13497;48.322;16.204;2024-01-25T12:17:30;18.83;;;10.57;;
25639;SDS011;13497;48.322;16.204;2024-01-25T12:20:04;33.38;;;11.93;;
25639;SDS011;13497;48.322;16.204;2024-01-25T12:22:35;15.75;;;9.77;;
25639;SDS011;13497;48.322;16.204;2024-01-25T12:25:02;19.60;;;9.02;;
25639;SDS011;13497;48.322;16.204;2024-01-25T12:27:31;17.67;;;10.15;;
25639;SDS011;13497;48.322;16.204;2024-01-25T12:29:57;9.70;;;8.38;;
25639;SDS011;13497;48.322;16.204;2024-01-25T12:32:23;17.98;;;9.98;;
25639;SDS011;13497;48.322;16.204;2024-01-25T12:34:58;28.23;;;8.02;;
25639;SDS011;13497;48.322;16.204;2024-01-25T12:37:28;19.80;;;14.13;;
25639;SDS011;13497;48.322;16.204;2024-01-25T12:39:55;27.00;;;13.73;;
25639;SDS011;13497;48.322;16.204;2024-01-25T12:42:21;17.73;;;11.05;;
25639;SDS011;13497;48.322;16.204;2024-01-25T12:44:47;18.67;;;12.43;;
25639;SDS011;13497;48.322;16.204;2024-01-25T12:47:13;35.63;;;25.27;;
25639;SDS011;13497;48.322;16.204;2024-01-25T12:49:40;36.53;;;23.75;;
25639;SDS011;13497;48.322;16.204;2024-01-25T12:52:07;67.82;;;40.63;;
25639;SDS011;13497;48.322;16.204;2024-01-25T12:54:36;81.10;;;50.83;;
25639;SDS011;13497;48.322;16.204;2024-01-25T12:57:04;33.22;;;19.20;;
25639;SDS011;13497;48.322;16.204;2024-01-25T12:59:30;32.75;;;24.25;;
25639;SDS011;13497;48.322;16.204;2024-01-25T13:02:00;25.65;;;16.15;;
25639;SDS011;13497;48.322;16.204;2024-01-25T13:04:26;16.67;;;4.25;;
25639;SDS011;13497;48.322;16.204;2024-01-25T13:06:54;14.85;;;10.77;;
25639;SDS011;13497;48.322;16.204;2024-01-25T13:09:21;13.15;;;10.57;;
25639;SDS011;13497;48.322;16.204;2024-01-25T13:11:47;16.75;;;8.75;;
25639;SDS011;13497;48.322;16.204;2024-01-25T13:14:13;16.35;;;8.27;;
25639;SDS011;13497;48.322;16.204;2024-01-25T13:16:38;16.88;;;10.57;;
25639;SDS011;13497;48.322;16.204;2024-01-25T13:19:04;25.65;;;11.65;;
25639;SDS011;13497;48.322;16.204;2024-01-25T13:21:31;20.15;;;9.18;;
25639;SDS011;13497;48.322;16.204;2024-01-25T13:24:01;19.63;;;8.63;;
25639;SDS011;13497;48.322;16.204;2024-01-25T13:26:28;14.40;;;9.07;;
25639;SDS011;13497;48.322;16.204;2024-01-25T13:28:54;18.27;;;8.85;;
25639;SDS011;13497;48.322;16.204;2024-01-25T13:31:20;76.93;;;39.80;;
25639;SDS011;13497;48.322;16.204;2024-01-25T13:33:46;52.67;;;31.33;;
25639;SDS011;13497;48.322;16.204;2024-01-25T13:36:12;60.17;;;35.30;;
25639;SDS011;13497;48.322;16.204;2024-01-25T13:38:39;63.97;;;35.95;;
25639;SDS011;13497;48.322;16.204;2024-01-25T13:41:05;65.30;;;35.78;;
25639;SDS011;13497;48.322;16.204;2024-01-25T13:43:31;62.72;;;35.47;;
25639;SDS011;13497;48.322;16.204;2024-01-25T13:45:57;31.75;;;13.18;;
25639;SDS011;13497;48.322;16.204;2024-01-25T13:48:23;31.88;;;16.70;;
25639;SDS011;13497;48.322;16.204;2024-01-25T13:50:48;39.22;;;26.20;;
25639;SDS011;13497;48.322;16.204;2024-01-25T13:53:14;21.17;;;14.88;;
25639;SDS011;13497;48.322;16.204;2024-01-25T13:55:40;30.73;;;21.30;;
25639;SDS011;13497;48.322;16.204;2024-01-25T13:58:05;24.42;;;10.70;;
25639;SDS011;13497;48.322;16.204;2024-01-25T14:00:31;20.83;;;11.30;;
25639;SDS011;13497;48.322;16.204;2024-01-25T14:02:57;21.38;;;13.77;;
25639;SDS011;13497;48.322;16.204;2024-01-25T14:05:22;19.42;;;12.32;;
25639;SDS011;13497;48.322;16.204;2024-01-25T14:07:48;18.55;;;8.30;;
25639;SDS011;13497;48.322;16.204;2024-01-25T14:10:14;32.75;;;20.17;;
25639;SDS011;13497;48.322;16.204;2024-01-25T14:12:40;27.02;;;14.25;;
25639;SDS011;13497;48.322;16.204;2024-01-25T14:15:09;14.45;;;11.18;;
25639;SDS011;13497;48.322;16.204;2024-01-25T14:17:34;18.52;;;10.52;;
25639;SDS011;13497;48.322;16.204;2024-01-25T14:20:02;16.27;;;7.95;;